Time;durP1;ratioP1;P1;durP2;ratioP2;P2;SDS_P1;SDS_P2;PMS_P1;PMS_P2;Temp;Humidity;BMP_temperature;BMP_pressure;BME280_temperature;BME280_humidity;BME280_pressure;Samples;Min_cycle;Max_cycle;Signal;HPM_P1;HPM_P2
2021/03/25 00:00:20;;;;;;;4.43;3.40;;;;;;;;;;5073692;28;20025;-66
2021/03/25 00:02:47;;;;;;;6.05;3.03;;;;;;;;;;5074085;28;20009;-68
2021/03/25 00:05:13;;;;;;;7.13;3.33;;;;;;;;;;5073734;28;20016;-67
2021/03/25 00:07:39;;;;;;;4.80;3.08;;;;;;;;;;5073727;28;20023;-70
2021/03/25 00:10:06;;;;;;;4.22;3.00;;;;;;;;;;5073718;28;20032;-70
2021/03/25 00:12:31;;;;;;;4.57;3.42;;;;;;;;;;5073567;28;20158;-70
2021/03/25 00:14:57;;;;;;;3.90;2.83;;;;;;;;;;5073677;28;20032;-68
2021/03/25 00:17:24;;;;;;;3.80;3.03;;;;;;;;;;5073600;28;20021;-71
2021/03/25 00:19:49;;;;;;;3.17;2.63;;;;;;;;;;5073538;28;20836;-67
2021/03/25 00:22:15;;;;;;;5.47;3.22;;;;;;;;;;5073572;28;20030;-66
2021/03/25 00:24:40;;;;;;;5.22;3.05;;;;;;;;;;5073581;28;20052;-66
2021/03/25 00:27:05;;;;;;;3.87;2.83;;;;;;;;;;5073525;28;20016;-66
2021/03/25 00:29:31;;;;;;;5.38;3.00;;;;;;;;;;5072470;28;20583;-66
2021/03/25 00:31:56;;;;;;;4.53;2.90;;;;;;;;;;5073463;28;20027;-66
2021/03/25 00:34:21;;;;;;;5.07;2.75;;;;;;;;;;5073302;28;20021;-69
2021/03/25 00:36:49;;;;;;;4.50;2.95;;;;;;;;;;5073459;28;20024;-68
2021/03/25 00:39:16;;;;;;;3.75;2.90;;;;;;;;;;5073106;28;20021;-68
2021/03/25 00:41:41;;;;;;;4.25;2.78;;;;;;;;;;5073344;28;20028;-70
2021/03/25 00:44:07;;;;;;;5.13;3.35;;;;;;;;;;5073403;28;20050;-66
2021/03/25 00:46:33;;;;;;;4.00;2.72;;;;;;;;;;5073239;28;20067;-66
2021/03/25 00:49:00;;;;;;;3.72;2.80;;;;;;;;;;5073571;28;20028;-68
2021/03/25 00:51:26;;;;;;;3.45;3.03;;;;;;;;;;5073229;28;20024;-66
2021/03/25 00:53:51;;;;;;;4.77;2.90;;;;;;;;;;5075610;28;20025;-67
2021/03/25 00:56:16;;;;;;;4.30;3.07;;;;;;;;;;5076949;28;20312;-66
2021/03/25 00:58:44;;;;;;;4.80;2.80;;;;;;;;;;5076798;28;20255;-66
2021/03/25 01:01:11;;;;;;;3.60;3.00;;;;;;;;;;5076898;28;20441;-66
2021/03/25 01:03:36;;;;;;;3.58;2.80;;;;;;;;;;5076900;28;20024;-67
2021/03/25 01:06:02;;;;;;;4.65;2.88;;;;;;;;;;5076788;28;20461;-68
2021/03/25 01:08:27;;;;;;;5.20;2.88;;;;;;;;;;5076787;28;20016;-66
2021/03/25 01:10:54;;;;;;;11.50;3.53;;;;;;;;;;5076718;28;20031;-65
2021/03/25 01:13:28;;;;;;;3.97;2.58;;;;;;;;;;5076609;28;20425;-66
2021/03/25 01:15:55;;;;;;;4.13;2.97;;;;;;;;;;5076585;28;20089;-67
2021/03/25 01:18:21;;;;;;;5.07;2.60;;;;;;;;;;5076619;28;20052;-69
2021/03/25 01:20:47;;;;;;;3.40;2.65;;;;;;;;;;5076497;28;20046;-70
2021/03/25 01:23:13;;;;;;;3.30;2.63;;;;;;;;;;5075259;28;20091;-69
2021/03/25 01:25:39;;;;;;;3.58;2.60;;;;;;;;;;5075410;28;20069;-69
2021/03/25 01:28:05;;;;;;;3.92;2.83;;;;;;;;;;5075984;28;20437;-69
2021/03/25 01:30:34;;;;;;;3.22;2.70;;;;;;;;;;5076257;28;20491;-70
2021/03/25 01:33:02;;;;;;;4.53;2.80;;;;;;;;;;5076325;28;20353;-70
2021/03/25 01:35:30;;;;;;;5.05;2.85;;;;;;;;;;5075237;28;20032;-68
2021/03/25 01:37:55;;;;;;;3.80;2.67;;;;;;;;;;5063773;28;20032;-68
2021/03/25 01:40:20;;;;;;;3.85;2.83;;;;;;;;;;5075930;28;20048;-68
2021/03/25 01:42:46;;;;;;;3.87;2.70;;;;;;;;;;5076137;28;20017;-68
2021/03/25 01:45:29;;;;;;;3.90;2.80;;;;;;;;;;5076049;28;20346;-69
2021/03/25 01:47:58;;;;;;;2.88;2.60;;;;;;;;;;5076055;28;20016;-69
2021/03/25 01:50:23;;;;;;;4.60;2.60;;;;;;;;;;5067210;28;20029;-67
2021/03/25 01:53:02;;;;;;;5.97;2.60;;;;;;;;;;5055892;28;20092;-66
2021/03/25 01:55:30;;;;;;;3.40;2.75;;;;;;;;;;5055976;28;20063;-68
2021/03/25 01:58:03;;;;;;;3.72;2.70;;;;;;;;;;5070508;28;20021;-67
2021/03/25 02:00:38;;;;;;;3.42;2.70;;;;;;;;;;5074809;28;20025;-68
2021/03/25 02:03:03;;;;;;;3.33;2.70;;;;;;;;;;5075740;28;20017;-68
2021/03/25 02:05:40;;;;;;;3.57;2.53;;;;;;;;;;5074076;28;20393;-67
2021/03/25 02:08:07;;;;;;;3.80;2.55;;;;;;;;;;5075633;28;20111;-67
2021/03/25 02:10:42;;;;;;;3.58;2.65;;;;;;;;;;5075547;28;20020;-67
2021/03/25 02:13:12;;;;;;;3.00;2.50;;;;;;;;;;5074566;28;20042;-67
2021/03/25 02:15:39;;;;;;;3.25;2.60;;;;;;;;;;5075502;28;20078;-66
2021/03/25 02:18:14;;;;;;;3.80;2.60;;;;;;;;;;5075346;28;20020;-67
2021/03/25 02:20:45;;;;;;;2.95;2.65;;;;;;;;;;5075257;28;20453;-66
2021/03/25 02:23:13;;;;;;;3.20;2.90;;;;;;;;;;5071693;28;20029;-66
2021/03/25 02:25:41;;;;;;;3.30;2.60;;;;;;;;;;5054332;28;20016;-65
2021/03/25 02:28:06;;;;;;;3.25;2.38;;;;;;;;;;5054591;28;20059;-65
2021/03/25 02:30:37;;;;;;;3.17;2.70;;;;;;;;;;5055209;28;20048;-66
2021/03/25 02:33:05;;;;;;;2.45;2.25;;;;;;;;;;5055213;28;20047;-64
2021/03/25 02:35:32;;;;;;;3.25;2.70;;;;;;;;;;5055080;28;20029;-64
2021/03/25 02:38:05;;;;;;;3.50;2.58;;;;;;;;;;5055080;28;20025;-64
2021/03/25 02:40:33;;;;;;;3.70;2.63;;;;;;;;;;5054682;28;20065;-64
2021/03/25 02:43:07;;;;;;;3.30;2.25;;;;;;;;;;5054884;28;20079;-65
2021/03/25 02:45:34;;;;;;;4.13;2.55;;;;;;;;;;5054878;28;20458;-65
2021/03/25 02:48:01;;;;;;;3.70;2.50;;;;;;;;;;5054862;28;20021;-65
2021/03/25 02:50:29;;;;;;;3.42;2.33;;;;;;;;;;5054686;28;20043;-65
2021/03/25 02:53:00;;;;;;;2.90;2.60;;;;;;;;;;5054781;28;20021;-64
2021/03/25 02:55:25;;;;;;;3.25;2.45;;;;;;;;;;5062308;28;20104;-64
2021/03/25 02:58:00;;;;;;;3.80;2.72;;;;;;;;;;5074689;28;20059;-64
2021/03/25 03:00:31;;;;;;;3.53;2.70;;;;;;;;;;5074508;28;20031;-64
2021/03/25 03:03:01;;;;;;;3.50;2.47;;;;;;;;;;5073669;28;20024;-64
2021/03/25 03:05:28;;;;;;;4.63;2.67;;;;;;;;;;5074461;28;20009;-64
2021/03/25 03:07:56;;;;;;;2.42;2.22;;;;;;;;;;5074416;28;20012;-66
2021/03/25 03:10:26;;;;;;;3.13;2.47;;;;;;;;;;5073429;28;20032;-67
2021/03/25 03:12:55;;;;;;;2.38;2.08;;;;;;;;;;5073419;28;20396;-66
2021/03/25 03:15:20;;;;;;;3.00;2.60;;;;;;;;;;5074081;28;20028;-68
2021/03/25 03:17:47;;;;;;;2.92;2.30;;;;;;;;;;5073283;28;20108;-67
2021/03/25 03:20:19;;;;;;;2.38;2.15;;;;;;;;;;5074195;28;20074;-67
2021/03/25 03:22:46;;;;;;;3.55;2.33;;;;;;;;;;5074252;28;20059;-66
2021/03/25 03:25:14;;;;;;;3.90;2.53;;;;;;;;;;5074088;28;20104;-67
2021/03/25 03:27:42;;;;;;;3.45;2.42;;;;;;;;;;5074120;28;20437;-65
2021/03/25 03:30:09;;;;;;;2.80;2.42;;;;;;;;;;5072222;28;20020;-65
2021/03/25 03:32:48;;;;;;;3.13;2.30;;;;;;;;;;5073082;28;20059;-64
2021/03/25 03:35:24;;;;;;;4.00;2.28;;;;;;;;;;5073752;28;20107;-65
2021/03/25 03:37:53;;;;;;;4.75;2.60;;;;;;;;;;5073961;28;20026;-67
2021/03/25 03:40:22;;;;;;;2.40;2.17;;;;;;;;;;5073769;28;20041;-67
2021/03/25 03:42:47;;;;;;;2.88;2.58;;;;;;;;;;5073964;28;20083;-64
2021/03/25 03:45:15;;;;;;;2.25;2.05;;;;;;;;;;5067374;28;20032;-66
2021/03/25 03:47:41;;;;;;;2.45;2.25;;;;;;;;;;5058921;28;20009;-69
2021/03/25 03:50:13;;;;;;;3.25;2.50;;;;;;;;;;5053939;28;20382;-69
2021/03/25 03:52:41;;;;;;;2.55;2.00;;;;;;;;;;5065547;28;20023;-67
2021/03/25 03:55:09;;;;;;;4.25;2.17;;;;;;;;;;5053742;28;20115;-66
2021/03/25 03:57:41;;;;;;;2.70;2.35;;;;;;;;;;5053660;28;20358;-70
2021/03/25 04:00:44;;;;;;;2.92;2.63;;;;;;;;;;5053700;28;20032;-70
2021/03/25 04:03:09;;;;;;;3.15;2.65;;;;;;;;;;5011985;28;20064;-66
2021/03/25 04:05:39;;;;;;;3.95;2.20;;;;;;;;;;5045743;28;20421;-65
2021/03/25 04:08:04;;;;;;;3.22;2.20;;;;;;;;;;5053593;28;20017;-66
2021/03/25 04:10:34;;;;;;;2.83;2.20;;;;;;;;;;5053628;28;20167;-66
2021/03/25 04:13:03;;;;;;;2.25;2.00;;;;;;;;;;5071395;28;20029;-65
2021/03/25 04:15:34;;;;;;;4.28;2.28;;;;;;;;;;5073233;28;20073;-64
2021/03/25 04:18:20;;;;;;;3.80;2.28;;;;;;;;;;5073339;28;20038;-68
2021/03/25 04:20:45;;;;;;;;;;;;;;;;;;5074035;28;20108;-69
2021/03/25 04:23:12;;;;;;;2.43;2.17;;;;;;;;;;5073637;28;20532;-67
2021/03/25 04:25:42;;;;;;;2.42;2.15;;;;;;;;;;5073315;28;20017;-66
2021/03/25 04:28:09;;;;;;;3.50;2.30;;;;;;;;;;5072144;28;20024;-68
2021/03/25 04:30:38;;;;;;;3.28;2.05;;;;;;;;;;5077076;28;20021;-65
2021/03/25 04:33:03;;;;;;;2.80;2.00;;;;;;;;;;5079521;28;20024;-69
2021/03/25 04:35:28;;;;;;;3.92;2.45;;;;;;;;;;5076030;28;20024;-69
2021/03/25 04:37:54;;;;;;;4.50;2.28;;;;;;;;;;5077004;28;20020;-69
2021/03/25 04:40:26;;;;;;;2.88;2.13;;;;;;;;;;5076585;28;20112;-66
2021/03/25 04:42:54;;;;;;;2.65;2.22;;;;;;;;;;5073088;28;20037;-69
2021/03/25 04:45:27;;;;;;;3.08;2.13;;;;;;;;;;5076616;28;20024;-69
2021/03/25 04:47:57;;;;;;;3.80;2.03;;;;;;;;;;5075421;28;20040;-66
2021/03/25 04:50:24;;;;;;;6.72;2.38;;;;;;;;;;5075932;28;20024;-65
2021/03/25 04:52:59;;;;;;;2.90;2.17;;;;;;;;;;5073717;28;20469;-66
2021/03/25 04:55:24;;;;;;;5.22;2.22;;;;;;;;;;5057057;28;20044;-65
2021/03/25 04:57:54;;;;;;;2.47;2.00;;;;;;;;;;5056936;28;20450;-66
2021/03/25 05:00:30;;;;;;;4.00;2.20;;;;;;;;;;5056825;28;20430;-67
2021/03/25 05:02:56;;;;;;;4.28;2.08;;;;;;;;;;5056779;28;20025;-66
2021/03/25 05:05:25;;;;;;;2.95;2.17;;;;;;;;;;5056812;28;20083;-66
2021/03/25 05:07:57;;;;;;;1.73;1.63;;;;;;;;;;5056772;28;20350;-66
2021/03/25 05:10:25;;;;;;;3.28;1.95;;;;;;;;;;5056715;28;20437;-67
2021/03/25 05:12:54;;;;;;;3.00;2.00;;;;;;;;;;5056683;28;20025;-67
2021/03/25 05:15:20;;;;;;;2.30;1.92;;;;;;;;;;5056671;28;20430;-66
2021/03/25 05:18:04;;;;;;;2.90;2.15;;;;;;;;;;5056539;28;20029;-67
2021/03/25 05:20:40;;;;;;;3.00;2.20;;;;;;;;;;5056435;28;20074;-66
2021/03/25 05:23:09;;;;;;;3.80;2.30;;;;;;;;;;5056511;28;20017;-66
2021/03/25 05:25:43;;;;;;;2.95;2.00;;;;;;;;;;5063276;28;20020;-67
2021/03/25 05:28:11;;;;;;;2.97;2.28;;;;;;;;;;5076421;28;20016;-66
2021/03/25 05:30:38;;;;;;;3.00;1.83;;;;;;;;;;5076398;28;20104;-69
2021/03/25 05:33:05;;;;;;;5.00;2.17;;;;;;;;;;5076335;28;20341;-67
2021/03/25 05:35:38;;;;;;;3.15;2.35;;;;;;;;;;5076230;28;20024;-67
2021/03/25 05:38:03;;;;;;;2.40;2.13;;;;;;;;;;5076105;28;20028;-64
2021/03/25 05:40:32;;;;;;;2.17;1.67;;;;;;;;;;5074783;28;20048;-68
2021/03/25 05:43:00;;;;;;;2.30;2.00;;;;;;;;;;5075228;28;20036;-69
2021/03/25 05:45:33;;;;;;;4.10;2.10;;;;;;;;;;5076079;28;20017;-69
2021/03/25 05:48:04;;;;;;;2.55;1.77;;;;;;;;;;5075015;28;20170;-69
2021/03/25 05:50:29;;;;;;;2.30;1.90;;;;;;;;;;5075451;28;20012;-68
2021/03/25 05:53:13;;;;;;;2.20;1.80;;;;;;;;;;5075859;28;20039;-66
2021/03/25 05:55:38;;;;;;;2.20;2.00;;;;;;;;;;5075860;28;20304;-66
2021/03/25 05:58:25;;;;;;;3.27;1.90;;;;;;;;;;5075905;28;20103;-66
2021/03/25 06:00:50;;;;;;;;;;;;;;;;;;5076155;28;20028;-65
2021/03/25 06:03:17;;;;;;;2.03;1.83;;;;;;;;;;5075673;28;19904;-68
2021/03/25 06:05:44;;;;;;;3.47;1.80;;;;;;;;;;5075695;28;20013;-68
2021/03/25 06:08:10;;;;;;;3.08;1.98;;;;;;;;;;5074708;28;20071;-69
2021/03/25 06:10:44;;;;;;;2.67;1.90;;;;;;;;;;5074415;28;20037;-69
2021/03/25 06:13:21;;;;;;;2.13;1.65;;;;;;;;;;5075506;28;20024;-67
2021/03/25 06:15:47;;;;;;;2.53;1.90;;;;;;;;;;5075546;28;20430;-67
2021/03/25 06:18:33;;;;;;;3.97;1.73;;;;;;;;;;5075440;28;20099;-68
2021/03/25 06:21:23;;;;;;;2.70;1.98;;;;;;;;;;5075246;28;20986;-66
2021/03/25 06:23:55;;;;;;;3.33;1.80;;;;;;;;;;5044381;28;20040;-68
2021/03/25 06:26:29;;;;;;;2.38;1.75;;;;;;;;;;5072971;28;20008;-69
2021/03/25 06:29:02;;;;;;;3.60;1.55;;;;;;;;;;5072160;28;20466;-69
2021/03/25 06:31:45;;;;;;;2.10;1.88;;;;;;;;;;5074870;28;20021;-69
2021/03/25 06:34:19;;;;;;;2.15;1.63;;;;;;;;;;5073319;28;20024;-68
2021/03/25 06:36:51;;;;;;;3.47;1.90;;;;;;;;;;5073920;28;20031;-69
2021/03/25 06:39:21;;;;;;;2.08;1.85;;;;;;;;;;5074617;28;20028;-67
2021/03/25 06:41:52;;;;;;;3.10;2.15;;;;;;;;;;5075333;28;20084;-68
2021/03/25 06:44:20;;;;;;;3.08;1.80;;;;;;;;;;5079917;28;20020;-68
2021/03/25 06:46:50;;;;;;;4.10;1.98;;;;;;;;;;5076444;28;20016;-68
2021/03/25 06:49:19;;;;;;;2.25;1.73;;;;;;;;;;5075435;28;20037;-69
2021/03/25 06:51:44;;;;;;;3.13;1.88;;;;;;;;;;5062324;28;20032;-69
2021/03/25 06:54:15;;;;;;;5.72;1.92;;;;;;;;;;5090602;28;20353;-69
2021/03/25 06:56:43;;;;;;;8.88;1.80;;;;;;;;;;5083057;28;20020;-69
2021/03/25 06:59:12;;;;;;;4.53;2.03;;;;;;;;;;5082263;28;20036;-68
2021/03/25 07:01:45;;;;;;;3.88;1.80;;;;;;;;;;5090919;28;20103;-69
2021/03/25 07:04:16;;;;;;;2.00;1.70;;;;;;;;;;5062301;28;20326;-68
2021/03/25 07:06:41;;;;;;;3.05;1.73;;;;;;;;;;5070257;28;20376;-69
2021/03/25 07:09:07;;;;;;;2.53;1.75;;;;;;;;;;5076763;28;20024;-68
2021/03/25 07:11:32;;;;;;;2.47;1.77;;;;;;;;;;5087554;28;20012;-68
2021/03/25 07:14:07;;;;;;;4.40;1.85;;;;;;;;;;5085292;28;20090;-70
2021/03/25 07:16:39;;;;;;;5.15;2.17;;;;;;;;;;5078327;28;20044;-67
2021/03/25 07:19:07;;;;;;;13.10;6.18;;;;;;;;;;5055830;28;20020;-67
2021/03/25 07:21:40;;;;;;;22.25;15.05;;;;;;;;;;5069947;28;20399;-67
2021/03/25 07:24:28;;;;;;;22.13;17.27;;;;;;;;;;5074841;28;20486;-69
2021/03/25 07:26:59;;;;;;;23.75;16.67;;;;;;;;;;5075189;28;20032;-67
2021/03/25 07:29:29;;;;;;;24.77;14.70;;;;;;;;;;5076719;28;20012;-66
2021/03/25 07:31:57;;;;;;;19.88;13.82;;;;;;;;;;5071649;28;20044;-73
2021/03/25 07:34:31;;;;;;;22.63;13.05;;;;;;;;;;5067951;28;20611;-67
2021/03/25 07:36:57;;;;;;;20.88;11.60;;;;;;;;;;5078150;28;20040;-66
2021/03/25 07:39:27;;;;;;;16.30;10.48;;;;;;;;;;5071295;28;20028;-65
2021/03/25 07:41:54;;;;;;;16.35;10.35;;;;;;;;;;5076478;28;20031;-67
2021/03/25 07:44:28;;;;;;;19.55;10.05;;;;;;;;;;5076393;28;20425;-66
2021/03/25 07:47:14;;;;;;;13.07;9.55;;;;;;;;;;5073007;28;20094;-66
2021/03/25 07:49:41;;;;;;;14.75;9.27;;;;;;;;;;5061876;28;20288;-64
2021/03/25 07:52:26;;;;;;;14.30;9.00;;;;;;;;;;5071333;28;20036;-64
2021/03/25 07:54:51;;;;;;;14.95;8.25;;;;;;;;;;5072673;28;20497;-65
2021/03/25 07:57:19;;;;;;;11.95;7.57;;;;;;;;;;5073889;28;20119;-65
2021/03/25 07:59:46;;;;;;;8.23;6.97;;;;;;;;;;5073862;28;20055;-66
2021/03/25 08:02:24;;;;;;;11.77;7.55;;;;;;;;;;5072881;28;20044;-66
2021/03/25 08:04:49;;;;;;;11.63;6.85;;;;;;;;;;5073221;28;20017;-65
2021/03/25 08:07:14;;;;;;;12.23;6.65;;;;;;;;;;5068248;28;20442;-66
2021/03/25 08:09:46;;;;;;;9.88;6.22;;;;;;;;;;5053536;28;20025;-66
2021/03/25 08:12:23;;;;;;;9.55;6.32;;;;;;;;;;5056086;28;20025;-65
2021/03/25 08:15:03;;;;;;;8.93;5.60;;;;;;;;;;5073674;28;20025;-65
2021/03/25 08:17:37;;;;;;;8.52;6.20;;;;;;;;;;5073706;28;20104;-65
2021/03/25 08:20:07;;;;;;;9.55;5.75;;;;;;;;;;5073443;28;20035;-66
2021/03/25 08:22:50;;;;;;;11.43;5.80;;;;;;;;;;5073585;28;20024;-66
2021/03/25 08:25:15;;;;;;;10.40;5.70;;;;;;;;;;5073186;28;20020;-66
2021/03/25 08:27:45;;;;;;;11.20;5.20;;;;;;;;;;5073565;28;20081;-66
2021/03/25 08:30:16;;;;;;;9.70;5.03;;;;;;;;;;5073481;28;20715;-66
2021/03/25 08:32:53;;;;;;;7.95;5.00;;;;;;;;;;5073428;28;20456;-66
2021/03/25 08:35:23;;;;;;;7.03;4.53;;;;;;;;;;5073513;28;20016;-66
2021/03/25 08:38:01;;;;;;;9.32;4.68;;;;;;;;;;5073526;28;20012;-67
2021/03/25 08:40:31;;;;;;;7.22;4.25;;;;;;;;;;5073148;28;20037;-65
2021/03/25 08:42:59;;;;;;;8.30;4.00;;;;;;;;;;5073362;28;20020;-66
2021/03/25 08:45:36;;;;;;;8.70;4.30;;;;;;;;;;5073454;28;20056;-66
2021/03/25 08:48:11;;;;;;;6.07;4.03;;;;;;;;;;5073386;28;20009;-66
2021/03/25 08:50:36;;;;;;;6.30;3.90;;;;;;;;;;5069251;28;20031;-66
2021/03/25 08:53:22;;;;;;;7.65;3.53;;;;;;;;;;5064887;28;20017;-66
2021/03/25 08:55:50;;;;;;;9.48;4.20;;;;;;;;;;5050556;28;20033;-65
2021/03/25 08:58:18;;;;;;;8.18;3.72;;;;;;;;;;5056761;28;20032;-66
2021/03/25 09:00:46;;;;;;;5.85;3.63;;;;;;;;;;5053105;28;20191;-65
2021/03/25 09:03:16;;;;;;;7.22;3.85;;;;;;;;;;5053174;28;20067;-66
2021/03/25 09:05:48;;;;;;;11.45;4.05;;;;;;;;;;5058071;28;20016;-65
2021/03/25 09:08:15;;;;;;;9.60;3.97;;;;;;;;;;5065069;28;20315;-66
2021/03/25 09:10:49;;;;;;;11.18;4.55;;;;;;;;;;5072712;28;20036;-67
2021/03/25 09:13:22;;;;;;;12.60;4.68;;;;;;;;;;5072755;28;20020;-66
2021/03/25 09:15:47;;;;;;;9.32;4.68;;;;;;;;;;5074944;28;20058;-66
2021/03/25 09:18:29;;;;;;;14.25;4.65;;;;;;;;;;5076291;28;20420;-67
2021/03/25 09:21:08;;;;;;;8.85;4.30;;;;;;;;;;5075133;28;20020;-67
2021/03/25 09:23:34;;;;;;;8.95;4.38;;;;;;;;;;5076499;28;20016;-67
2021/03/25 09:26:19;;;;;;;15.85;4.50;;;;;;;;;;5076462;28;20028;-67
2021/03/25 09:29:01;;;;;;;11.68;4.80;;;;;;;;;;5076532;28;20443;-66
2021/03/25 09:31:29;;;;;;;11.15;5.07;;;;;;;;;;5076457;28;20415;-67
2021/03/25 09:33:58;;;;;;;14.10;4.90;;;;;;;;;;5075065;28;20028;-67
2021/03/25 09:36:24;;;;;;;13.35;5.13;;;;;;;;;;5075246;28;20472;-66
2021/03/25 09:38:50;;;;;;;18.27;6.30;;;;;;;;;;5071503;28;20028;-65
2021/03/25 09:41:28;;;;;;;14.68;8.13;;;;;;;;;;5075707;28;20123;-67
2021/03/25 09:44:05;;;;;;;25.17;11.20;;;;;;;;;;5075876;28;20024;-67
2021/03/25 09:46:34;;;;;;;17.38;10.18;;;;;;;;;;5074340;28;20009;-65
2021/03/25 09:49:15;;;;;;;14.13;7.95;;;;;;;;;;5075945;28;20563;-67
2021/03/25 09:51:43;;;;;;;17.50;7.72;;;;;;;;;;5075597;28;20020;-64
2021/03/25 09:54:27;;;;;;;14.98;7.75;;;;;;;;;;5072903;28;20046;-65
2021/03/25 09:57:11;;;;;;;13.07;6.60;;;;;;;;;;5060833;28;20032;-64
2021/03/25 09:59:47;;;;;;;17.00;6.32;;;;;;;;;;5055896;28;20048;-66
2021/03/25 10:02:12;;;;;;;12.55;5.32;;;;;;;;;;5066067;28;20074;-67
2021/03/25 10:04:39;;;;;;;12.82;5.82;;;;;;;;;;5057263;28;20396;-67
2021/03/25 10:07:14;;;;;;;13.20;5.93;;;;;;;;;;5076522;28;20070;-66
2021/03/25 10:09:59;;;;;;;10.25;5.18;;;;;;;;;;5069843;28;20465;-66
2021/03/25 10:12:43;;;;;;;10.38;5.10;;;;;;;;;;5077178;28;20043;-66
2021/03/25 10:15:27;;;;;;;8.32;4.78;;;;;;;;;;5080546;28;20052;-67
2021/03/25 10:17:52;;;;;;;9.48;4.55;;;;;;;;;;5063881;28;20460;-66
2021/03/25 10:20:36;;;;;;;9.87;5.00;;;;;;;;;;5084682;28;20110;-66
2021/03/25 10:23:01;;;;;;;14.93;5.97;;;;;;;;;;5078103;28;20277;-66
2021/03/25 10:25:27;;;;;;;11.43;4.90;;;;;;;;;;5076756;28;20012;-66
2021/03/25 10:27:57;;;;;;;11.95;4.97;;;;;;;;;;5077313;28;20009;-66
2021/03/25 10:30:25;;;;;;;9.48;4.65;;;;;;;;;;5079242;28;20032;-67
2021/03/25 10:32:51;;;;;;;8.63;4.60;;;;;;;;;;5077051;28;20103;-68
2021/03/25 10:35:23;;;;;;;10.32;4.97;;;;;;;;;;5071683;28;20070;-66
2021/03/25 10:37:50;;;;;;;8.20;4.60;;;;;;;;;;5073085;28;20020;-67
2021/03/25 10:40:17;;;;;;;11.77;4.88;;;;;;;;;;5062164;28;20050;-67
2021/03/25 10:42:53;;;;;;;16.70;4.70;;;;;;;;;;5087461;28;20048;-65
2021/03/25 10:45:20;;;;;;;14.03;4.70;;;;;;;;;;5086840;28;20016;-67
2021/03/25 10:47:51;;;;;;;12.45;4.82;;;;;;;;;;5079549;28;20051;-65
2021/03/25 10:50:22;;;;;;;14.88;5.53;;;;;;;;;;5073377;28;20024;-65
2021/03/25 10:52:47;;;;;;;17.65;7.90;;;;;;;;;;5065998;28;20476;-64
2021/03/25 10:55:24;;;;;;;28.70;8.60;;;;;;;;;;5071741;28;20016;-64
2021/03/25 10:57:53;;;;;;;17.88;7.20;;;;;;;;;;5074310;28;20349;-64
2021/03/25 11:00:19;;;;;;;18.60;6.85;;;;;;;;;;5073356;28;20524;-65
2021/03/25 11:02:45;;;;;;;12.93;6.18;;;;;;;;;;5072841;28;20020;-64
2021/03/25 11:05:13;;;;;;;12.23;6.60;;;;;;;;;;5074160;28;20008;-65
2021/03/25 11:07:42;;;;;;;21.38;6.03;;;;;;;;;;5069146;28;20017;-66
2021/03/25 11:10:16;;;;;;;17.00;6.22;;;;;;;;;;5053856;28;20110;-66
2021/03/25 11:12:44;;;;;;;12.52;5.80;;;;;;;;;;5054169;28;20021;-65
2021/03/25 11:15:15;;;;;;;12.10;5.53;;;;;;;;;;5054445;28;20021;-66
2021/03/25 11:17:42;;;;;;;10.23;6.03;;;;;;;;;;5054461;28;20111;-65
2021/03/25 11:20:13;;;;;;;10.05;5.25;;;;;;;;;;5054297;28;20036;-66
2021/03/25 11:22:41;;;;;;;13.02;5.50;;;;;;;;;;5053669;28;20021;-66
2021/03/25 11:25:14;;;;;;;11.63;5.50;;;;;;;;;;5054250;28;20029;-65
2021/03/25 11:27:39;;;;;;;13.80;5.10;;;;;;;;;;5054189;28;20020;-66
2021/03/25 11:30:23;;;;;;;12.52;4.88;;;;;;;;;;5054216;28;20075;-66
2021/03/25 11:32:48;;;;;;;10.57;4.88;;;;;;;;;;5054055;28;20092;-66
2021/03/25 11:35:32;;;;;;;10.80;4.77;;;;;;;;;;5054136;28;20067;-65
2021/03/25 11:38:14;;;;;;;8.00;4.45;;;;;;;;;;5052524;28;20274;-65
2021/03/25 11:40:42;;;;;;;11.73;4.72;;;;;;;;;;5053594;28;20473;-67
2021/03/25 11:43:14;;;;;;;12.70;5.07;;;;;;;;;;5054004;28;20066;-66
2021/03/25 11:45:39;;;;;;;14.10;4.55;;;;;;;;;;5053955;28;20025;-66
2021/03/25 11:48:26;;;;;;;7.93;4.32;;;;;;;;;;5053940;28;20404;-66
2021/03/25 11:50:52;;;;;;;13.48;5.05;;;;;;;;;;5053794;28;20028;-66
2021/03/25 11:53:47;;;;;;;13.48;4.70;;;;;;;;;;5053802;28;20033;-66
2021/03/25 11:56:38;;;;;;;14.20;4.57;;;;;;;;;;5049265;28;20112;-66
2021/03/25 11:59:06;;;;;;;16.15;4.40;;;;;;;;;;5050599;28;20033;-66
2021/03/25 12:01:32;;;;;;;5.07;4.13;;;;;;;;;;5056641;28;20008;-66
2021/03/25 12:04:03;;;;;;;6.22;3.90;;;;;;;;;;5072971;28;20021;-66
2021/03/25 12:06:30;;;;;;;13.48;4.68;;;;;;;;;;5073367;28;20025;-65
2021/03/25 12:09:10;;;;;;;9.85;4.38;;;;;;;;;;5073571;28;20028;-66
2021/03/25 12:11:41;;;;;;;7.55;3.83;;;;;;;;;;5073761;28;20017;-66
2021/03/25 12:14:07;;;;;;;11.75;4.07;;;;;;;;;;5073682;28;20146;-66
2021/03/25 12:16:33;;;;;;;12.00;4.00;;;;;;;;;;5073717;28;20043;-66
2021/03/25 12:18:59;;;;;;;7.95;3.85;;;;;;;;;;5073612;28;20364;-66
2021/03/25 12:21:24;;;;;;;10.82;5.50;;;;;;;;;;5073567;28;20027;-67
2021/03/25 12:23:52;;;;;;;11.95;5.90;;;;;;;;;;5073578;28;20042;-68
2021/03/25 12:26:17;;;;;;;14.80;6.38;;;;;;;;;;5073530;28;20036;-69
2021/03/25 12:28:43;;;;;;;11.77;6.00;;;;;;;;;;5073855;28;20012;-69
2021/03/25 12:31:10;;;;;;;10.13;5.03;;;;;;;;;;5073486;28;20265;-69
2021/03/25 12:33:36;;;;;;;11.90;5.00;;;;;;;;;;5073462;28;20024;-68
2021/03/25 12:36:02;;;;;;;8.27;4.97;;;;;;;;;;5073471;28;20028;-68
2021/03/25 12:38:30;;;;;;;9.48;4.90;;;;;;;;;;5073328;28;20028;-69
2021/03/25 12:40:56;;;;;;;10.25;4.63;;;;;;;;;;5073233;28;20354;-67
2021/03/25 12:43:26;;;;;;;9.70;5.28;;;;;;;;;;5073352;28;20075;-68
2021/03/25 12:45:53;;;;;;;8.50;4.78;;;;;;;;;;5073584;28;20112;-68
2021/03/25 12:48:19;;;;;;;14.80;5.03;;;;;;;;;;5073366;28;20091;-67
2021/03/25 12:50:45;;;;;;;10.38;4.70;;;;;;;;;;5077147;28;20062;-67
2021/03/25 12:53:10;;;;;;;8.63;3.75;;;;;;;;;;5077179;28;20487;-68
2021/03/25 12:55:36;;;;;;;8.75;4.65;;;;;;;;;;5077127;28;20473;-68
2021/03/25 12:58:04;;;;;;;11.25;4.45;;;;;;;;;;5077058;28;20429;-67
2021/03/25 13:00:39;;;;;;;10.80;4.55;;;;;;;;;;5076869;28;20035;-68
2021/03/25 13:03:07;;;;;;;15.93;5.03;;;;;;;;;;5073610;28;20341;-67
2021/03/25 13:05:32;;;;;;;17.48;4.15;;;;;;;;;;5075004;28;20028;-68
2021/03/25 13:07:58;;;;;;;11.77;4.22;;;;;;;;;;5076433;28;20360;-67
2021/03/25 13:10:28;;;;;;;10.38;4.57;;;;;;;;;;5075877;28;20441;-67
2021/03/25 13:12:54;;;;;;;12.45;4.00;;;;;;;;;;5075741;28;20021;-67
2021/03/25 13:15:21;;;;;;;9.57;4.07;;;;;;;;;;5076686;28;20028;-67
2021/03/25 13:17:46;;;;;;;13.73;4.32;;;;;;;;;;5076648;28;20082;-67
2021/03/25 13:20:12;;;;;;;12.27;3.85;;;;;;;;;;5076460;28;20029;-67
2021/03/25 13:22:40;;;;;;;11.63;4.35;;;;;;;;;;5076765;28;20113;-67
2021/03/25 13:25:07;;;;;;;8.95;3.53;;;;;;;;;;5076552;28;20017;-67
2021/03/25 13:27:32;;;;;;;8.55;4.03;;;;;;;;;;5076474;28;20070;-68
2021/03/25 13:29:57;;;;;;;12.15;4.30;;;;;;;;;;5076512;28;20396;-67
2021/03/25 13:32:25;;;;;;;9.18;4.22;;;;;;;;;;5076024;28;20020;-67
2021/03/25 13:34:53;;;;;;;10.15;3.97;;;;;;;;;;5075322;28;20028;-67
2021/03/25 13:37:18;;;;;;;10.85;3.97;;;;;;;;;;5076165;28;20356;-68
2021/03/25 13:39:45;;;;;;;9.00;4.20;;;;;;;;;;5078027;28;20040;-66
2021/03/25 13:42:10;;;;;;;9.88;3.85;;;;;;;;;;5076169;28;20464;-67
2021/03/25 13:44:36;;;;;;;8.50;4.20;;;;;;;;;;5077516;28;20024;-67
2021/03/25 13:47:01;;;;;;;8.48;4.32;;;;;;;;;;5075783;28;20038;-66
2021/03/25 13:49:26;;;;;;;8.75;4.30;;;;;;;;;;5090714;28;20405;-67
2021/03/25 13:51:52;;;;;;;7.73;4.07;;;;;;;;;;5090776;28;20035;-67
2021/03/25 13:54:17;;;;;;;9.25;4.20;;;;;;;;;;5079000;28;20263;-67
2021/03/25 13:56:42;;;;;;;7.22;3.83;;;;;;;;;;5066465;28;20338;-68
2021/03/25 13:59:10;;;;;;;6.68;3.80;;;;;;;;;;5073494;28;20024;-67
2021/03/25 14:01:35;;;;;;;8.95;3.88;;;;;;;;;;5077409;28;20052;-66
2021/03/25 14:04:03;;;;;;;15.93;10.65;;;;;;;;;;5077268;28;20461;-63
2021/03/25 14:06:29;;;;;;;14.05;10.75;;;;;;;;;;5077945;28;20456;-61
2021/03/25 14:08:54;;;;;;;23.17;11.40;;;;;;;;;;5075243;28;20017;-61
2021/03/25 14:11:20;;;;;;;18.20;11.43;;;;;;;;;;5071961;28;20021;-61
2021/03/25 14:13:45;;;;;;;19.23;11.68;;;;;;;;;;5075445;28;20095;-61
2021/03/25 14:16:11;;;;;;;20.40;11.05;;;;;;;;;;5074240;28;20028;-63
2021/03/25 14:18:38;;;;;;;15.02;10.23;;;;;;;;;;5080769;28;20056;-62
2021/03/25 14:21:03;;;;;;;20.33;9.35;;;;;;;;;;5064163;28;20021;-63
2021/03/25 14:23:29;;;;;;;10.63;8.32;;;;;;;;;;5071293;28;20031;-68
2021/03/25 14:25:54;;;;;;;12.70;8.33;;;;;;;;;;5074752;28;20020;-68
2021/03/25 14:28:22;;;;;;;13.20;8.45;;;;;;;;;;5074964;28;20712;-68
2021/03/25 14:30:50;;;;;;;12.23;7.70;;;;;;;;;;5074900;28;20461;-68
2021/03/25 14:33:17;;;;;;;11.57;7.63;;;;;;;;;;5076759;28;20081;-68
2021/03/25 14:35:45;;;;;;;10.10;6.68;;;;;;;;;;5076076;28;20021;-66
2021/03/25 14:38:11;;;;;;;10.35;6.57;;;;;;;;;;5076336;28;20026;-67
2021/03/25 14:40:37;;;;;;;10.50;5.95;;;;;;;;;;5085834;28;20113;-67
2021/03/25 14:43:05;;;;;;;11.65;6.55;;;;;;;;;;5072315;28;20008;-66
2021/03/25 14:45:33;;;;;;;7.88;5.40;;;;;;;;;;5075900;28;20121;-65
2021/03/25 14:47:58;;;;;;;7.00;5.18;;;;;;;;;;5075715;28;20055;-67
2021/03/25 14:50:26;;;;;;;11.68;5.40;;;;;;;;;;5078759;28;20052;-66
2021/03/25 14:52:52;;;;;;;9.57;5.25;;;;;;;;;;5073341;28;20051;-66